Red Bluff — WDC6944 — position and weather

sailwx.info

Track history (hours):
 
Tides and Currents Weather Stations Pressure Air Temp Water Temp Dewpoint Dewpoint Depression Visibility Wind Speed Wind Dir Waves Ship Positions

Red Bluff

Owner: Star Marine Inc, Bainbridge Island, WA. More information available from US FCC via Universal Licensing System and Coast Guard Vessel Documentation Center.

Last reported at 2017-Oct-19 22:00 UTC. Time now 2017-Oct-19 22:13 UTC.
Position N 47°37' W 122°31'.

; draft 10 m.

Type: Tug. MMSI: 367063680.

Date/timePositionNaut miles runAvg speedWind from/ knotsBaromVisibWave heightAir tempDewpointWater temp
2017-Oct-19 22:00N 47°37' W 122°31'0 0.0
2017-Oct-19 21:30N 47°37' W 122°31'0 0.0
2017-Oct-19 21:00N 47°37' W 122°31'0 0.0
2017-Oct-19 20:30N 47°37' W 122°31'0 0.0
2017-Oct-19 20:00N 47°37' W 122°31'0 0.0
2017-Oct-19 19:30N 47°37' W 122°31'0 0.0
2017-Oct-19 19:00N 47°37' W 122°31'0 0.0
2017-Oct-19 18:31N 47°37' W 122°31'0 0.0
2017-Oct-19 18:00N 47°37' W 122°31'0 0.0
2017-Oct-19 17:30N 47°37' W 122°31'0 0.0
2017-Oct-19 17:01N 47°37' W 122°31'0 0.0
2017-Oct-19 16:30N 47°37' W 122°31'0 0.0
2017-Oct-19 15:59N 47°37' W 122°31'0 0.0
2017-Oct-19 15:30N 47°37' W 122°31'0 0.0
2017-Oct-19 00:03N 47°37' W 122°31'0 0.0
2017-Oct-19 00:00N 47°37' W 122°31'0 0.0
2017-Oct-18 23:30N 47°37' W 122°31'0 0.0
2017-Oct-18 23:00N 47°37' W 122°31'0 0.0
2017-Oct-18 22:30N 47°37' W 122°31'0 0.0
2017-Oct-18 22:00N 47°37' W 122°31'0 0.0
2017-Oct-18 21:30N 47°37' W 122°31'0 0.0
2017-Oct-18 21:01N 47°37' W 122°31'0 0.0
2017-Oct-18 20:30N 47°37' W 122°31'0 0.0
2017-Oct-18 20:00N 47°37' W 122°31'0 0.0
2017-Oct-18 19:30N 47°37' W 122°31'0 0.0
2017-Oct-18 19:00N 47°37' W 122°31'0 0.0
2017-Oct-18 18:30N 47°37' W 122°31'0 0.0
2017-Oct-18 18:00N 47°37' W 122°31'0 0.0
2017-Oct-18 17:31N 47°37' W 122°31'0 0.0
2017-Oct-18 17:00N 47°37' W 122°31'0 0.0
2017-Oct-18 16:30N 47°37' W 122°31'0 0.0
2017-Oct-18 16:00N 47°37' W 122°31'0 0.0
2017-Oct-16 17:24N 47°37' W 122°31'  
2017-Oct-13 22:12N 47°37' W 122°31'0 0.0
2017-Oct-13 21:46N 47°37' W 122°31'0 0.0
2017-Oct-13 21:31N 47°37' W 122°31'0 0.0
2017-Oct-13 21:01N 47°37' W 122°31'0 0.4
2017-Oct-13 20:31N 47°37' W 122°31'3 5.5
2017-Oct-13 20:01N 47°40' W 122°29'510.5
2017-Oct-13 19:31N 47°45' W 122°28'510.5
2017-Oct-13 19:01N 47°50' W 122°29'510.6
2017-Oct-13 18:31N 47°55' W 122°31'32 2.6
2017-Oct-13 06:25N 48°25' W 122°45'510.7
2017-Oct-13 05:59N 48°30' W 122°45'5 9.9
2017-Oct-13 05:30N 48°33' W 122°50'5 9.5
2017-Oct-13 05:00N 48°35' W 122°56'0 0.8
2017-Oct-13 04:30N 48°36' W 122°57'0 0.1
2017-Oct-13 04:00N 48°36' W 122°57'0 0.7
2017-Oct-13 03:30N 48°36' W 122°56'1 1.0
2017-Oct-13 02:59N 48°35' W 122°56'0 0.0
2017-Oct-13 02:18N 48°35' W 122°56'0 0.0
2017-Oct-13 01:59N 48°35' W 122°56'0 0.0
2017-Oct-13 01:27N 48°35' W 122°56'1 3.0
2017-Oct-13 01:00N 48°35' W 122°54'4 8.9
2017-Oct-13 00:30N 48°31' W 122°57'4 7.8
2017-Oct-13 00:00N 48°27' W 122°57'4 8.1
2017-Oct-12 23:30N 48°23' W 122°55'27 9.7
2017-Oct-12 20:43N 47°59' W 122°37'2 9.8
2017-Oct-12 20:29N 47°57' W 122°35'4 8.9
2017-Oct-12 20:00N 47°54' W 122°31'510.1
2017-Oct-12 19:30N 47°50' W 122°29'510.1
2017-Oct-12 19:00N 47°44' W 122°28'510.3
2017-Oct-12 18:30N 47°39' W 122°29'3 5.1
2017-Oct-12 18:00N 47°37' W 122°31'0 0.0
2017-Oct-12 02:13N 47°37' W 122°31'0 0.0
2017-Oct-12 02:00N 47°37' W 122°31'1 1.3
2017-Oct-12 01:30N 47°37' W 122°30'3 6.9
2017-Oct-12 01:00N 47°40' W 122°28'3 5.0
2017-Oct-12 00:30N 47°40' W 122°24'1 1.1
2017-Oct-12 00:00N 47°40' W 122°23'0 0.0
2017-Oct-11 23:30N 47°40' W 122°23'0 0.0
2017-Oct-11 23:00N 47°40' W 122°23'0 0.0
2017-Oct-11 22:30N 47°40' W 122°23'0 0.0
2017-Oct-11 22:00N 47°40' W 122°23'0 0.0
2017-Oct-11 21:30N 47°40' W 122°23'0 0.0
2017-Oct-11 20:19N 47°40' W 122°23'0 0.0
2017-Oct-11 20:01N 47°40' W 122°23'0 0.0
2017-Oct-11 17:07N 47°40' W 122°23'0 0.4
2017-Oct-11 17:00N 47°40' W 122°23'9 0.5
2017-Oct-11 00:00N 47°49' W 122°25'3 7.0
2017-Oct-10 23:30N 47°52' W 122°23'4 7.5
2017-Oct-10 23:00N 47°55' W 122°21'4 7.3
2017-Oct-10 22:30N 47°59' W 122°20'4 7.0
2017-Oct-10 22:00N 48°02' W 122°22'3 7.1
2017-Oct-10 21:30N 48°05' W 122°26'31 5.2
2017-Oct-10 15:31N 48°35' W 122°35'2 6.4
2017-Oct-10 15:11N 48°37' W 122°35'1 6.1
2017-Oct-10 15:00N 48°38' W 122°34'5 5.4
2017-Oct-10 14:00N 48°43' W 122°31'0 0.3
2017-Oct-10 13:29N 48°44' W 122°31'0 0.2
2017-Oct-10 13:00N 48°43' W 122°31'0 0.1
2017-Oct-10 12:22N 48°44' W 122°31'0 0.5
2017-Oct-10 11:57N 48°43' W 122°31'1 2.0
2017-Oct-10 11:28N 48°43' W 122°32'3 6.1
2017-Oct-10 10:55N 48°39' W 122°34'2 5.8
2017-Oct-10 10:30N 48°38' W 122°36'3 5.4
2017-Oct-10 10:00N 48°36' W 122°39'3 5.8
2017-Oct-10 09:30N 48°33' W 122°40'2 4.7
2017-Oct-10 09:00N 48°31' W 122°42'2 4.3
2017-Oct-10 08:30N 48°29' W 122°44'2 3.7
2017-Oct-10 08:00N 48°27' W 122°44'3 4.5
2017-Oct-10 07:21N 48°24' W 122°44'1 4.1
2017-Oct-10 07:00N 48°23' W 122°44'3 5.0
2017-Oct-10 06:24N 48°20' W 122°46'2 5.8
2017-Oct-10 05:58N 48°18' W 122°46'20 7.8
2017-Oct-10 03:22N 47°59' W 122°35'3 8.6
2017-Oct-10 03:00N 47°57' W 122°31'4 7.2
2017-Oct-10 02:30N 47°54' W 122°28'4 7.1
2017-Oct-10 02:00N 47°51' W 122°27'4 7.5
2017-Oct-10 01:30N 47°47' W 122°26'4 7.3
2017-Oct-10 01:00N 47°43' W 122°26'3 7.0
2017-Oct-10 00:30N 47°40' W 122°27'4 7.1
2017-Oct-10 00:00N 47°36' W 122°27'4 7.2
2017-Oct-09 23:30N 47°33' W 122°26'3 6.9
2017-Oct-09 23:00N 47°30' W 122°24'4 7.3
2017-Oct-09 22:30N 47°26' W 122°23'4 7.1
2017-Oct-09 22:00N 47°23' W 122°21'  
Track history (hours):
 
Tides and Currents Weather Stations Pressure Air Temp Water Temp Dewpoint Dewpoint Depression Visibility Wind Speed Wind Dir Waves Ship Positions

Red Bluff

Owner: Star Marine Inc, Bainbridge Island, WA. More information available from US FCC via Universal Licensing System and Coast Guard Vessel Documentation Center.

Last reported at 2017-Oct-19 22:00 UTC. Time now 2017-Oct-19 22:13 UTC.
Position N 47°37' W 122°31'.

; draft 10 m.

Type: Tug. MMSI: 367063680.

Date/timePositionNaut miles runAvg speedWind from/ knotsBaromVisibWave heightAir tempDewpointWater temp
2017-Oct-19 22:00N 47°37' W 122°31'0 0.0
2017-Oct-19 21:30N 47°37' W 122°31'0 0.0
2017-Oct-19 21:00N 47°37' W 122°31'0 0.0
2017-Oct-19 20:30N 47°37' W 122°31'0 0.0
2017-Oct-19 20:00N 47°37' W 122°31'0 0.0
2017-Oct-19 19:30N 47°37' W 122°31'0 0.0
2017-Oct-19 19:00N 47°37' W 122°31'0 0.0
2017-Oct-19 18:31N 47°37' W 122°31'0 0.0
2017-Oct-19 18:00N 47°37' W 122°31'0 0.0
2017-Oct-19 17:30N 47°37' W 122°31'0 0.0
2017-Oct-19 17:01N 47°37' W 122°31'0 0.0
2017-Oct-19 16:30N 47°37' W 122°31'0 0.0
2017-Oct-19 15:59N 47°37' W 122°31'0 0.0
2017-Oct-19 15:30N 47°37' W 122°31'0 0.0
2017-Oct-19 00:03N 47°37' W 122°31'0 0.0
2017-Oct-19 00:00N 47°37' W 122°31'0 0.0
2017-Oct-18 23:30N 47°37' W 122°31'0 0.0
2017-Oct-18 23:00N 47°37' W 122°31'0 0.0
2017-Oct-18 22:30N 47°37' W 122°31'0 0.0
2017-Oct-18 22:00N 47°37' W 122°31'0 0.0
2017-Oct-18 21:30N 47°37' W 122°31'0 0.0
2017-Oct-18 21:01N 47°37' W 122°31'0 0.0
2017-Oct-18 20:30N 47°37' W 122°31'0 0.0
2017-Oct-18 20:00N 47°37' W 122°31'0 0.0
2017-Oct-18 19:30N 47°37' W 122°31'0 0.0
2017-Oct-18 19:00N 47°37' W 122°31'0 0.0
2017-Oct-18 18:30N 47°37' W 122°31'0 0.0
2017-Oct-18 18:00N 47°37' W 122°31'0 0.0
2017-Oct-18 17:31N 47°37' W 122°31'0 0.0
2017-Oct-18 17:00N 47°37' W 122°31'0 0.0
2017-Oct-18 16:30N 47°37' W 122°31'0 0.0
2017-Oct-18 16:00N 47°37' W 122°31'0 0.0
2017-Oct-16 17:24N 47°37' W 122°31'  
2017-Oct-13 22:12N 47°37' W 122°31'0 0.0
2017-Oct-13 21:46N 47°37' W 122°31'0 0.0
2017-Oct-13 21:31N 47°37' W 122°31'0 0.0
2017-Oct-13 21:01N 47°37' W 122°31'0 0.4
2017-Oct-13 20:31N 47°37' W 122°31'3 5.5
2017-Oct-13 20:01N 47°40' W 122°29'510.5
2017-Oct-13 19:31N 47°45' W 122°28'510.5
2017-Oct-13 19:01N 47°50' W 122°29'510.6
2017-Oct-13 18:31N 47°55' W 122°31'32 2.6
2017-Oct-13 06:25N 48°25' W 122°45'510.7
2017-Oct-13 05:59N 48°30' W 122°45'5 9.9
2017-Oct-13 05:30N 48°33' W 122°50'5 9.5
2017-Oct-13 05:00N 48°35' W 122°56'0 0.8
2017-Oct-13 04:30N 48°36' W 122°57'0 0.1
2017-Oct-13 04:00N 48°36' W 122°57'0 0.7
2017-Oct-13 03:30N 48°36' W 122°56'1 1.0
2017-Oct-13 02:59N 48°35' W 122°56'0 0.0
2017-Oct-13 02:18N 48°35' W 122°56'0 0.0
2017-Oct-13 01:59N 48°35' W 122°56'0 0.0
2017-Oct-13 01:27N 48°35' W 122°56'1 3.0
2017-Oct-13 01:00N 48°35' W 122°54'4 8.9
2017-Oct-13 00:30N 48°31' W 122°57'4 7.8
2017-Oct-13 00:00N 48°27' W 122°57'4 8.1
2017-Oct-12 23:30N 48°23' W 122°55'27 9.7
2017-Oct-12 20:43N 47°59' W 122°37'2 9.8
2017-Oct-12 20:29N 47°57' W 122°35'4 8.9
2017-Oct-12 20:00N 47°54' W 122°31'510.1
2017-Oct-12 19:30N 47°50' W 122°29'510.1
2017-Oct-12 19:00N 47°44' W 122°28'510.3
2017-Oct-12 18:30N 47°39' W 122°29'3 5.1
2017-Oct-12 18:00N 47°37' W 122°31'0 0.0
2017-Oct-12 02:13N 47°37' W 122°31'0 0.0
2017-Oct-12 02:00N 47°37' W 122°31'1 1.3
2017-Oct-12 01:30N 47°37' W 122°30'3 6.9
2017-Oct-12 01:00N 47°40' W 122°28'3 5.0
2017-Oct-12 00:30N 47°40' W 122°24'1 1.1
2017-Oct-12 00:00N 47°40' W 122°23'0 0.0
2017-Oct-11 23:30N 47°40' W 122°23'0 0.0
2017-Oct-11 23:00N 47°40' W 122°23'0 0.0
2017-Oct-11 22:30N 47°40' W 122°23'0 0.0
2017-Oct-11 22:00N 47°40' W 122°23'0 0.0
2017-Oct-11 21:30N 47°40' W 122°23'0 0.0
2017-Oct-11 20:19N 47°40' W 122°23'0 0.0
2017-Oct-11 20:01N 47°40' W 122°23'0 0.0
2017-Oct-11 17:07N 47°40' W 122°23'0 0.4
2017-Oct-11 17:00N 47°40' W 122°23'9 0.5
2017-Oct-11 00:00N 47°49' W 122°25'3 7.0
2017-Oct-10 23:30N 47°52' W 122°23'4 7.5
2017-Oct-10 23:00N 47°55' W 122°21'4 7.3
2017-Oct-10 22:30N 47°59' W 122°20'4 7.0
2017-Oct-10 22:00N 48°02' W 122°22'3 7.1
2017-Oct-10 21:30N 48°05' W 122°26'31 5.2
2017-Oct-10 15:31N 48°35' W 122°35'2 6.4
2017-Oct-10 15:11N 48°37' W 122°35'1 6.1
2017-Oct-10 15:00N 48°38' W 122°34'5 5.4
2017-Oct-10 14:00N 48°43' W 122°31'0 0.3
2017-Oct-10 13:29N 48°44' W 122°31'0 0.2
2017-Oct-10 13:00N 48°43' W 122°31'0 0.1
2017-Oct-10 12:22N 48°44' W 122°31'0 0.5
2017-Oct-10 11:57N 48°43' W 122°31'1 2.0
2017-Oct-10 11:28N 48°43' W 122°32'3 6.1
2017-Oct-10 10:55N 48°39' W 122°34'2 5.8
2017-Oct-10 10:30N 48°38' W 122°36'3 5.4
2017-Oct-10 10:00N 48°36' W 122°39'3 5.8
2017-Oct-10 09:30N 48°33' W 122°40'2 4.7
2017-Oct-10 09:00N 48°31' W 122°42'2 4.3
2017-Oct-10 08:30N 48°29' W 122°44'2 3.7
2017-Oct-10 08:00N 48°27' W 122°44'3 4.5
2017-Oct-10 07:21N 48°24' W 122°44'1 4.1
2017-Oct-10 07:00N 48°23' W 122°44'3 5.0
2017-Oct-10 06:24N 48°20' W 122°46'2 5.8
2017-Oct-10 05:58N 48°18' W 122°46'20 7.8
2017-Oct-10 03:22N 47°59' W 122°35'3 8.6
2017-Oct-10 03:00N 47°57' W 122°31'4 7.2
2017-Oct-10 02:30N 47°54' W 122°28'4 7.1
2017-Oct-10 02:00N 47°51' W 122°27'4 7.5
2017-Oct-10 01:30N 47°47' W 122°26'4 7.3
2017-Oct-10 01:00N 47°43' W 122°26'3 7.0
2017-Oct-10 00:30N 47°40' W 122°27'4 7.1
2017-Oct-10 00:00N 47°36' W 122°27'4 7.2
2017-Oct-09 23:30N 47°33' W 122°26'3 6.9
2017-Oct-09 23:00N 47°30' W 122°24'4 7.3
2017-Oct-09 22:30N 47°26' W 122°23'4 7.1
2017-Oct-09 22:00N 47°23' W 122°21'  

Dump ship's entire track history